createdAt,value
2019-05-29T00:02:15.797Z,37.66
2019-05-29T00:04:32.466Z,38.33
2019-05-29T00:06:49.453Z,38.61
2019-05-29T00:09:08.065Z,38.61
2019-05-29T00:11:25.058Z,38.14
2019-05-29T00:13:43.480Z,37.39
2019-05-29T00:16:00.355Z,39.33
2019-05-29T00:18:18.596Z,37.12
2019-05-29T00:20:35.999Z,38.17
2019-05-29T00:22:53.079Z,38.16
2019-05-29T00:25:10.635Z,37.74
2019-05-29T00:27:27.441Z,38.09
2019-05-29T00:29:44.328Z,38.09
2019-05-29T00:32:01.808Z,38.39
2019-05-29T00:34:18.476Z,38.58
2019-05-29T00:36:36.259Z,38.58
2019-05-29T00:38:53.465Z,41.23
2019-05-29T00:41:10.836Z,40.02
2019-05-29T00:43:28.042Z,38.96
2019-05-29T00:45:45.057Z,39.92
2019-05-29T00:48:01.689Z,38.53
2019-05-29T00:50:18.370Z,38.98
2019-05-29T00:52:35.252Z,38.98
2019-05-29T00:54:52.226Z,39.10
2019-05-29T00:57:09.250Z,44.23
2019-05-29T00:59:26.275Z,39.84
2019-05-29T01:01:43.074Z,42.50
2019-05-29T01:03:59.803Z,40.08
2019-05-29T01:06:16.393Z,42.35
2019-05-29T01:08:33.248Z,42.35
2019-05-29T01:10:50.245Z,42.69
2019-05-29T01:13:07.414Z,43.16
2019-05-29T01:15:24.574Z,41.15
2019-05-29T01:17:41.438Z,39.89
2019-05-29T01:19:58.291Z,42.44
2019-05-29T01:22:16.138Z,40.53
2019-05-29T01:24:33.353Z,41.50
2019-05-29T01:26:50.463Z,42.14
2019-05-29T01:29:07.431Z,41.97
2019-05-29T01:31:24.349Z,41.45
2019-05-29T01:33:41.440Z,44.32
2019-05-29T01:35:58.604Z,44.04
2019-05-29T01:38:15.322Z,41.05
2019-05-29T01:40:32.251Z,43.89
2019-05-29T01:42:50.187Z,46.23
2019-05-29T01:45:08.625Z,44.25
2019-05-29T01:47:25.543Z,44.01
2019-05-29T01:49:42.379Z,41.22
2019-05-29T01:51:59.375Z,44.18
2019-05-29T01:54:17.484Z,44.00
2019-05-29T01:56:35.244Z,44.78
2019-05-29T01:58:52.100Z,46.53
2019-05-29T02:01:09.293Z,46.46
2019-05-29T02:03:26.286Z,44.42
2019-05-29T02:05:43.354Z,41.78
2019-05-29T02:08:00.248Z,42.46
2019-05-29T02:10:18.234Z,42.61
2019-05-29T02:12:35.819Z,42.63
2019-05-29T02:14:52.337Z,41.65
2019-05-29T02:17:09.472Z,39.28
2019-05-29T02:19:26.593Z,42.91
2019-05-29T02:21:43.384Z,43.00
2019-05-29T02:24:00.337Z,41.54
2019-05-29T02:26:18.131Z,41.11
2019-05-29T02:28:34.961Z,41.45
2019-05-29T02:30:51.992Z,40.22
2019-05-29T02:33:09.872Z,41.87
2019-05-29T02:35:29.425Z,37.85
2019-05-29T02:37:45.427Z,36.84
2019-05-29T02:40:02.274Z,41.52
2019-05-29T02:42:20.874Z,40.32
2019-05-29T02:44:37.492Z,40.18
2019-05-29T02:46:54.457Z,40.18
2019-05-29T02:49:11.421Z,39.72
2019-05-29T02:51:28.841Z,41.64
2019-05-29T02:56:24.954Z,38.57
2019-05-29T02:58:41.583Z,39.11
2019-05-29T03:00:58.654Z,41.72
2019-05-29T03:03:15.551Z,39.77
2019-05-29T03:05:32.345Z,39.17
2019-05-29T03:07:49.305Z,41.65
2019-05-29T03:10:07.125Z,39.81
2019-05-29T03:12:25.012Z,43.34
2019-05-29T03:14:42.367Z,41.94
2019-05-29T03:16:59.528Z,42.24
2019-05-29T03:19:16.474Z,43.43
2019-05-29T03:21:34.767Z,42.43
2019-05-29T03:23:52.463Z,41.70
2019-05-29T03:26:09.459Z,42.19
2019-05-29T03:28:27.593Z,40.55
2019-05-29T03:30:46.351Z,43.26
2019-05-29T03:33:03.250Z,43.26
2019-05-29T03:35:20.262Z,39.46
2019-05-29T03:37:38.816Z,42.41
2019-05-29T03:39:55.649Z,40.97
2019-05-29T03:42:12.423Z,42.23
2019-05-29T03:44:30.759Z,43.98
2019-05-29T03:46:47.770Z,39.44
2019-05-29T03:49:04.473Z,40.61
2019-05-29T03:51:21.427Z,40.61
2019-05-29T03:53:38.632Z,38.52
2019-05-29T03:55:55.582Z,42.00
2019-05-29T03:58:12.538Z,42.40
2019-05-29T04:00:35.941Z,37.54
2019-05-29T04:02:48.248Z,37.24
2019-05-29T04:05:05.271Z,37.91
2019-05-29T04:07:22.318Z,41.88
2019-05-29T04:09:39.287Z,40.45
2019-05-29T04:11:56.381Z,39.07
2019-05-29T04:14:13.314Z,37.69
2019-05-29T04:16:52.435Z,37.75
2019-05-29T04:18:51.332Z,37.00
2019-05-29T04:21:08.336Z,36.64
2019-05-29T04:23:25.283Z,37.58
2019-05-29T04:25:43.207Z,36.45
2019-05-29T04:28:00.513Z,39.73
2019-05-29T04:30:17.253Z,37.50
2019-05-29T04:32:34.451Z,37.45
2019-05-29T04:34:51.358Z,41.52
2019-05-29T04:37:08.416Z,41.52
2019-05-29T04:39:25.539Z,39.61
2019-05-29T04:41:42.442Z,41.32
2019-05-29T04:43:59.273Z,41.36
2019-05-29T04:46:16.109Z,40.16
2019-05-29T04:48:34.028Z,42.17
2019-05-29T04:50:51.284Z,39.44
2019-05-29T04:53:08.280Z,39.81
2019-05-29T04:55:25.343Z,40.22
2019-05-29T04:57:43.499Z,41.93
2019-05-29T05:00:00.416Z,42.48
2019-05-29T05:02:17.295Z,40.63
2019-05-29T05:04:35.179Z,37.19
2019-05-29T05:06:52.305Z,37.10
2019-05-29T05:10:46.636Z,37.50
2019-05-29T05:13:03.988Z,37.50
2019-05-29T05:15:20.810Z,37.30
2019-05-29T05:17:38.041Z,38.13
2019-05-29T05:19:55.248Z,38.13
2019-05-29T05:22:12.265Z,38.32
2019-05-29T05:24:30.158Z,39.30
2019-05-29T05:26:47.269Z,40.51
2019-05-29T05:29:04.259Z,41.77
2019-05-29T05:31:21.297Z,40.75
2019-05-29T05:33:38.659Z,41.95
2019-05-29T05:35:55.589Z,42.32
2019-05-29T05:38:12.469Z,39.17
2019-05-29T05:40:30.666Z,40.97
2019-05-29T05:42:47.947Z,38.95
2019-05-29T05:45:05.600Z,38.95
2019-05-29T05:47:22.578Z,40.41
2019-05-29T05:49:39.663Z,42.06
2019-05-29T05:51:56.491Z,39.52
2019-05-29T05:54:13.465Z,39.52
2019-05-29T05:56:31.376Z,41.09
2019-05-29T05:58:48.574Z,39.43
2019-05-29T06:01:05.535Z,38.44
2019-05-29T06:03:22.447Z,38.24
2019-05-29T06:05:40.217Z,37.23
2019-05-29T06:07:57.536Z,37.44
2019-05-29T06:10:14.455Z,36.71
2019-05-29T06:12:32.439Z,36.31
2019-05-29T06:14:49.341Z,36.87
2019-05-29T06:17:08.055Z,36.82
2019-05-29T06:19:25.253Z,36.36
2019-05-29T06:21:42.888Z,39.01
2019-05-29T06:23:59.631Z,39.05
2019-05-29T06:26:16.549Z,41.67
2019-05-29T06:28:33.422Z,39.86
2019-05-29T06:30:50.521Z,40.56
2019-05-29T06:33:07.470Z,38.73
2019-05-29T06:35:24.460Z,38.32
2019-05-29T06:37:41.775Z,40.38
2019-05-29T06:39:59.026Z,40.16
2019-05-29T06:42:17.129Z,41.70
2019-05-29T06:44:36.397Z,43.29
2019-05-29T06:46:53.262Z,41.22
2019-05-29T06:49:09.980Z,38.04
2019-05-29T06:51:26.858Z,40.06
2019-05-29T06:53:43.921Z,39.42
2019-05-29T06:56:02.261Z,40.46
2019-05-29T06:58:19.586Z,40.46
2019-05-29T07:00:38.152Z,40.78
2019-05-29T07:02:55.536Z,39.92
2019-05-29T07:05:12.447Z,39.19
2019-05-29T07:07:29.401Z,40.16
2019-05-29T07:09:47.163Z,40.81
2019-05-29T07:12:05.134Z,41.09
2019-05-29T07:14:22.133Z,39.03
2019-05-29T07:16:45.433Z,41.62
2019-05-29T07:21:17.341Z,40.33
2019-05-29T07:23:34.439Z,41.82
2019-05-29T07:25:51.536Z,43.39
2019-05-29T07:28:09.092Z,39.80
2019-05-29T07:30:26.118Z,42.16
2019-05-29T07:32:51.034Z,40.21
2019-05-29T07:35:03.958Z,38.51
2019-05-29T07:37:21.431Z,40.07
2019-05-29T07:39:39.431Z,36.17
2019-05-29T07:41:57.513Z,38.98
2019-05-29T07:44:15.118Z,38.98
2019-05-29T07:46:32.251Z,38.51
2019-05-29T07:48:50.585Z,38.03
2019-05-29T07:51:08.848Z,35.72
2019-05-29T07:53:25.979Z,35.72
2019-05-29T07:55:42.970Z,34.45
2019-05-29T07:58:00.490Z,35.71
2019-05-29T08:00:17.993Z,34.63
2019-05-29T08:02:34.822Z,34.09
2019-05-29T08:04:51.690Z,36.21
2019-05-29T08:07:08.491Z,36.21
2019-05-29T08:09:25.517Z,32.03
2019-05-29T08:11:43.540Z,33.71
2019-05-29T08:14:00.605Z,35.63
2019-05-29T08:16:17.585Z,35.92
2019-05-29T08:18:34.390Z,33.89
2019-05-29T08:20:51.525Z,30.95
2019-05-29T08:23:08.352Z,30.20
2019-05-29T08:25:28.103Z,30.35
2019-05-29T08:27:46.580Z,28.77
2019-05-29T08:30:03.618Z,30.57
2019-05-29T08:32:20.315Z,30.08
2019-05-29T08:34:37.571Z,30.44
2019-05-29T08:37:04.888Z,29.61
2019-05-29T08:39:12.562Z,29.21
2019-05-29T08:41:29.635Z,27.56
2019-05-29T08:43:48.446Z,28.76
2019-05-29T08:46:05.534Z,34.25
2019-05-29T08:48:22.263Z,34.25
2019-05-29T08:50:39.293Z,30.39
2019-05-29T08:52:56.532Z,32.49
2019-05-29T08:55:14.001Z,31.84
2019-05-29T08:57:31.248Z,32.79
2019-05-29T08:59:48.520Z,30.70
2019-05-29T09:02:05.585Z,35.24
2019-05-29T09:04:22.838Z,29.34
2019-05-29T09:06:40.666Z,29.19
2019-05-29T09:08:57.811Z,30.52
2019-05-29T09:11:15.038Z,30.52
2019-05-29T09:13:31.832Z,33.95
2019-05-29T09:15:48.531Z,31.87
2019-05-29T09:18:05.572Z,33.28
2019-05-29T09:20:37.142Z,30.65
2019-05-29T09:22:42.852Z,31.85
2019-05-29T09:24:59.880Z,30.57
2019-05-29T09:27:17.129Z,28.23
2019-05-29T09:29:34.483Z,30.46
2019-05-29T09:31:51.387Z,30.55
2019-05-29T09:34:10.051Z,30.99
2019-05-29T09:36:27.277Z,29.03
2019-05-29T09:38:44.336Z,29.52
2019-05-29T09:41:01.458Z,27.98
2019-05-29T09:43:19.798Z,27.64
2019-05-29T09:45:38.248Z,29.54
2019-05-29T09:47:55.435Z,27.09
2019-05-29T09:50:12.485Z,28.32
2019-05-29T09:52:30.926Z,29.15
2019-05-29T09:54:48.337Z,32.99
2019-05-29T09:57:05.405Z,28.40
2019-05-29T09:59:22.503Z,25.75
2019-05-29T10:01:39.441Z,29.09
2019-05-29T10:03:57.596Z,27.97
2019-05-29T10:06:15.255Z,29.66
2019-05-29T10:08:32.498Z,27.99
2019-05-29T10:10:49.454Z,25.86
2019-05-29T10:13:06.316Z,28.21
2019-05-29T10:15:24.435Z,28.69
2019-05-29T10:17:41.306Z,26.92
2019-05-29T10:19:58.953Z,27.34
2019-05-29T10:22:16.041Z,26.03
2019-05-29T10:24:32.769Z,25.45
2019-05-29T10:26:49.556Z,22.84
2019-05-29T10:29:09.223Z,22.84
2019-05-29T10:31:25.225Z,22.74
2019-05-29T10:33:42.477Z,22.60
2019-05-29T10:36:03.403Z,23.96
2019-05-29T10:38:18.497Z,26.25
2019-05-29T10:40:35.400Z,24.34
2019-05-29T10:42:53.507Z,23.22
2019-05-29T10:45:10.523Z,20.06
2019-05-29T10:47:27.370Z,20.06
2019-05-29T10:49:45.527Z,23.28
2019-05-29T10:52:14.925Z,23.79
2019-05-29T10:54:21.800Z,23.79
2019-05-29T10:56:38.628Z,23.71
2019-05-29T11:02:30.774Z,20.95
2019-05-29T11:04:52.941Z,20.93
2019-05-29T11:07:06.306Z,20.93
2019-05-29T11:09:23.319Z,19.48
2019-05-29T11:11:40.256Z,20.54
2019-05-29T11:13:57.261Z,17.37
2019-05-29T11:16:14.332Z,21.05
2019-05-29T11:18:31.444Z,17.55
2019-05-29T11:20:49.338Z,19.06
2019-05-29T11:23:07.431Z,18.10
2019-05-29T11:25:27.563Z,17.05
2019-05-29T11:27:43.975Z,16.89
2019-05-29T11:30:00.632Z,17.44
2019-05-29T11:32:17.539Z,20.83
2019-05-29T11:34:34.281Z,17.52
2019-05-29T11:36:51.940Z,16.11
2019-05-29T11:39:09.955Z,17.68
2019-05-29T11:41:27.246Z,18.67
2019-05-29T11:43:44.281Z,17.30
2019-05-29T11:46:02.477Z,19.30
2019-05-29T11:48:19.343Z,17.81
2019-05-29T11:50:36.495Z,16.31
2019-05-29T11:52:54.325Z,16.48
2019-05-29T11:55:11.427Z,17.21
2019-05-29T11:57:39.880Z,17.63
2019-05-29T12:00:01.259Z,16.80
2019-05-29T12:02:15.973Z,17.78
2019-05-29T12:04:33.043Z,17.78
2019-05-29T12:06:51.170Z,16.47
2019-05-29T12:09:10.920Z,15.48
2019-05-29T12:11:28.591Z,15.08
2019-05-29T12:13:45.643Z,16.71
2019-05-29T12:16:02.657Z,16.02
2019-05-29T12:18:24.370Z,16.33
2019-05-29T12:20:39.484Z,16.88
2019-05-29T12:23:18.995Z,18.25
2019-05-29T12:25:15.229Z,17.43
2019-05-29T12:27:32.553Z,19.17
2019-05-29T12:29:49.763Z,18.77
2019-05-29T12:32:10.346Z,18.53
2019-05-29T12:34:26.337Z,18.53
2019-05-29T12:36:43.910Z,18.82
2019-05-29T12:39:02.241Z,16.95
2019-05-29T12:41:19.556Z,18.69
2019-05-29T12:43:36.673Z,18.69
2019-05-29T12:45:53.556Z,17.46
2019-05-29T12:48:13.984Z,17.31
2019-05-29T12:50:34.200Z,17.31
2019-05-29T12:52:48.480Z,18.95
2019-05-29T12:55:06.104Z,13.88
2019-05-29T12:57:23.670Z,14.16
2019-05-29T12:59:44.092Z,14.94
2019-05-29T13:02:02.687Z,17.99
2019-05-29T13:04:20.509Z,18.61
2019-05-29T13:06:37.498Z,17.40
2019-05-29T13:08:54.722Z,18.45
2019-05-29T13:11:11.663Z,16.60
2019-05-29T13:13:28.641Z,18.04
2019-05-29T13:15:46.059Z,16.89
2019-05-29T13:18:07.881Z,17.12
2019-05-29T13:20:22.427Z,20.11
2019-05-29T13:22:39.558Z,20.11
2019-05-29T13:24:57.343Z,18.08
2019-05-29T13:27:15.221Z,16.97
2019-05-29T13:29:33.029Z,15.06
2019-05-29T13:31:54.877Z,14.03
2019-05-29T13:34:09.715Z,16.74
2019-05-29T13:36:26.647Z,15.37
2019-05-29T13:38:43.646Z,15.37
2019-05-29T13:41:02.305Z,15.81
2019-05-29T13:43:19.856Z,15.81
2019-05-29T13:45:36.950Z,16.72
2019-05-29T13:47:53.563Z,15.00
2019-05-29T13:50:12.595Z,15.49
2019-05-29T13:52:28.823Z,15.10
2019-05-29T13:54:45.679Z,14.73
2019-05-29T13:57:04.175Z,15.96
2019-05-29T13:59:21.345Z,15.96
2019-05-29T14:01:38.781Z,17.17
2019-05-29T14:03:55.457Z,17.97
2019-05-29T14:06:12.426Z,17.97
2019-05-29T14:08:30.594Z,16.60
2019-05-29T14:14:11.804Z,16.29
2019-05-29T14:16:28.294Z,16.26
2019-05-29T14:18:47.939Z,17.90
2019-05-29T14:21:05.345Z,17.62
2019-05-29T14:23:22.273Z,17.17
2019-05-29T14:25:39.450Z,18.26
2019-05-29T14:27:56.406Z,15.79
2019-05-29T14:30:14.125Z,15.46
2019-05-29T14:32:31.296Z,13.78
2019-05-29T14:34:48.288Z,13.54
2019-05-29T14:37:06.291Z,15.07
2019-05-29T14:39:25.932Z,15.67
2019-05-29T14:41:42.861Z,17.15
2019-05-29T14:44:01.725Z,17.80
2019-05-29T14:46:19.235Z,16.01
2019-05-29T14:48:36.602Z,14.99
2019-05-29T14:50:53.454Z,15.03
2019-05-29T14:53:11.432Z,14.50
2019-05-29T14:55:29.117Z,13.54
2019-05-29T14:57:45.929Z,12.68
2019-05-29T15:00:06.798Z,14.60
2019-05-29T15:02:24.030Z,15.00
2019-05-29T15:04:41.293Z,14.23
2019-05-29T15:06:58.398Z,17.28
2019-05-29T15:09:15.480Z,17.23
2019-05-29T15:11:33.475Z,16.97
2019-05-29T15:13:50.502Z,16.67
2019-05-29T15:16:09.005Z,14.47
2019-05-29T15:18:26.253Z,13.95
2019-05-29T15:20:43.030Z,13.89
2019-05-29T15:22:59.794Z,12.77
2019-05-29T15:25:23.471Z,9.62
2019-05-29T15:27:35.412Z,9.62
2019-05-29T15:29:52.253Z,10.07
2019-05-29T15:32:10.320Z,9.67
2019-05-29T15:34:27.443Z,9.84
2019-05-29T15:36:44.515Z,13.81
2019-05-29T15:39:01.334Z,13.58
2019-05-29T15:41:20.090Z,13.37
2019-05-29T15:43:37.001Z,14.05
2019-05-29T15:45:53.648Z,12.84
2019-05-29T15:48:11.023Z,14.31
2019-05-29T15:50:28.653Z,13.03
2019-05-29T15:52:45.983Z,13.25
2019-05-29T15:55:19.976Z,14.62
2019-05-29T15:57:21.517Z,12.73
2019-05-29T15:59:38.467Z,13.37
2019-05-29T16:01:55.530Z,13.28
2019-05-29T16:07:11.920Z,14.12
2019-05-29T16:09:29.483Z,14.06
2019-05-29T16:11:47.478Z,16.41
2019-05-29T16:14:04.430Z,17.54
2019-05-29T16:16:21.499Z,17.14
2019-05-29T16:18:38.513Z,17.86
2019-05-29T16:20:58.436Z,18.78
2019-05-29T16:23:31.045Z,18.78
2019-05-29T16:25:40.041Z,20.21
2019-05-29T16:27:53.446Z,19.97
2019-05-29T16:30:11.415Z,20.23
2019-05-29T16:32:28.557Z,16.90
2019-05-29T16:34:45.548Z,16.90
2019-05-29T16:37:02.350Z,18.25
2019-05-29T16:39:21.449Z,16.35
2019-05-29T16:41:38.939Z,16.95
2019-05-29T16:43:55.733Z,16.95
2019-05-29T16:46:15.974Z,19.15
2019-05-29T16:48:31.568Z,17.80
2019-05-29T16:50:48.620Z,17.80
2019-05-29T16:53:06.536Z,15.71
2019-05-29T16:55:23.372Z,15.88
2019-05-29T16:57:40.473Z,14.05
2019-05-29T16:59:59.099Z,16.62
2019-05-29T17:05:39.230Z,15.33
2019-05-29T17:07:56.270Z,13.30
2019-05-29T17:10:14.283Z,17.16
2019-05-29T17:12:31.335Z,17.58
2019-05-29T17:14:48.584Z,19.00
2019-05-29T17:17:05.382Z,17.33
2019-05-29T17:19:23.042Z,16.40
2019-05-29T17:21:41.861Z,21.49
2019-05-29T17:23:58.675Z,19.96
2019-05-29T17:26:16.653Z,19.71
2019-05-29T17:28:33.819Z,21.79
2019-05-29T17:30:50.488Z,23.59
2019-05-29T17:33:08.352Z,23.59
2019-05-29T17:35:36.989Z,24.32
2019-05-29T17:37:53.701Z,21.62
2019-05-29T17:40:10.598Z,20.74
2019-05-29T17:42:27.442Z,23.96
2019-05-29T17:44:44.462Z,26.39
2019-05-29T17:47:01.509Z,28.33
2019-05-29T17:49:22.676Z,26.29
2019-05-29T17:51:39.013Z,28.47
2019-05-29T17:53:56.259Z,28.47
2019-05-29T17:56:26.406Z,28.29
2019-05-29T17:58:33.490Z,29.21
2019-05-29T18:00:50.355Z,26.87
2019-05-29T18:03:07.433Z,24.86
2019-05-29T18:05:24.869Z,28.20
2019-05-29T18:07:42.252Z,29.06
2019-05-29T18:09:59.869Z,29.54
2019-05-29T18:12:19.293Z,29.22
2019-05-29T18:14:37.284Z,28.55
2019-05-29T18:16:54.643Z,26.66
2019-05-29T18:19:11.343Z,26.72
2019-05-29T18:21:28.642Z,27.25
2019-05-29T18:23:45.555Z,30.82
2019-05-29T18:26:03.999Z,30.82
2019-05-29T18:28:22.072Z,27.28
2019-05-29T18:33:49.599Z,26.19
2019-05-29T18:36:07.246Z,27.30
2019-05-29T18:38:26.507Z,26.48
2019-05-29T18:40:43.869Z,29.26
2019-05-29T18:43:00.855Z,27.72
2019-05-29T18:45:22.951Z,27.57
2019-05-29T18:47:39.260Z,27.25
2019-05-29T18:49:56.287Z,27.56
2019-05-29T18:52:15.933Z,28.30
2019-05-29T18:54:35.235Z,31.33
2019-05-29T18:57:13.608Z,30.10
2019-05-29T18:59:11.947Z,33.80
2019-05-29T19:01:31.616Z,33.79
2019-05-29T19:03:52.325Z,31.45
2019-05-29T19:06:09.483Z,30.63
2019-05-29T19:08:29.781Z,30.65
2019-05-29T19:10:47.854Z,32.25
2019-05-29T19:13:04.895Z,32.25
2019-05-29T19:15:21.887Z,30.97
2019-05-29T19:17:39.323Z,31.12
2019-05-29T19:19:56.676Z,30.63
2019-05-29T19:22:13.463Z,32.54
2019-05-29T19:24:32.419Z,32.24
2019-05-29T19:26:50.370Z,31.10
2019-05-29T19:29:07.325Z,31.14
2019-05-29T19:31:24.966Z,31.69
2019-05-29T19:33:42.386Z,32.29
2019-05-29T19:35:59.423Z,31.64
2019-05-29T19:38:23.852Z,31.43
2019-05-29T19:40:40.820Z,32.91
2019-05-29T19:42:58.231Z,32.49
2019-05-29T19:45:20.423Z,32.30
2019-05-29T19:47:37.451Z,32.25
2019-05-29T19:49:54.470Z,32.01
2019-05-29T19:52:13.051Z,33.13
2019-05-29T19:54:35.868Z,33.27
2019-05-29T19:56:53.685Z,34.70
2019-05-29T19:59:10.634Z,35.32
2019-05-29T20:01:31.638Z,34.24
2019-05-29T20:03:46.567Z,34.92
2019-05-29T20:06:05.509Z,34.95
2019-05-29T20:08:23.355Z,35.63
2019-05-29T20:10:43.188Z,35.04
2019-05-29T20:13:00.330Z,34.58
2019-05-29T20:18:32.101Z,35.02
2019-05-29T20:20:49.407Z,35.08
2019-05-29T20:23:06.494Z,34.41
2019-05-29T20:25:23.309Z,35.47
2019-05-29T20:27:40.854Z,34.46
2019-05-29T20:30:00.513Z,33.45
2019-05-29T20:32:18.254Z,32.98
2019-05-29T20:34:37.355Z,33.00
2019-05-29T20:36:54.342Z,32.76
2019-05-29T20:39:13.276Z,33.00
2019-05-29T20:41:34.091Z,33.35
2019-05-29T20:43:49.961Z,33.26
2019-05-29T20:46:06.681Z,34.02
2019-05-29T20:48:24.888Z,34.34
2019-05-29T20:50:45.865Z,34.34
2019-05-29T20:53:05.231Z,33.97
2019-05-29T20:55:22.276Z,33.76
2019-05-29T20:57:40.164Z,33.67
2019-05-29T20:59:59.561Z,33.64
2019-05-29T21:02:18.853Z,33.54
2019-05-29T21:04:36.369Z,34.03
2019-05-29T21:06:53.657Z,34.66
2019-05-29T21:09:10.870Z,33.94
2019-05-29T21:11:30.510Z,34.32
2019-05-29T21:14:48.682Z,34.04
2019-05-29T21:17:06.511Z,34.04
2019-05-29T21:19:23.450Z,34.11
2019-05-29T21:21:40.448Z,34.12
2019-05-29T21:23:57.280Z,33.97
2019-05-29T21:26:14.549Z,34.99
2019-05-29T21:28:39.766Z,36.31
2019-05-29T21:30:50.278Z,36.80
2019-05-29T21:33:07.238Z,35.39
2019-05-29T21:35:24.495Z,34.87
2019-05-29T21:37:42.483Z,34.55
2019-05-29T21:39:59.822Z,34.74
2019-05-29T21:42:17.712Z,34.99
2019-05-29T21:44:34.974Z,35.14
2019-05-29T21:46:52.447Z,35.41
2019-05-29T21:49:12.603Z,34.94
2019-05-29T21:51:32.585Z,35.51
2019-05-29T21:53:51.468Z,34.83
2019-05-29T21:56:08.485Z,34.84
2019-05-29T21:58:27.798Z,34.97
2019-05-29T22:00:49.950Z,34.59
2019-05-29T22:03:08.451Z,34.59
2019-05-29T22:05:27.324Z,35.05
2019-05-29T22:07:44.856Z,34.47
2019-05-29T22:10:03.128Z,34.55
2019-05-29T22:12:20.246Z,34.61
2019-05-29T22:14:37.636Z,34.70
2019-05-29T22:16:54.959Z,35.66
2019-05-29T22:19:12.452Z,35.56
2019-05-29T22:21:31.473Z,35.58
2019-05-29T22:23:48.370Z,35.30
2019-05-29T22:26:05.464Z,35.50
2019-05-29T22:28:22.698Z,35.33
2019-05-29T22:30:39.402Z,35.88
2019-05-29T22:32:57.433Z,35.80
2019-05-29T22:35:14.433Z,36.24
2019-05-29T22:37:33.845Z,35.63
2019-05-29T22:39:51.474Z,35.21
2019-05-29T22:42:08.617Z,35.15
2019-05-29T22:44:25.488Z,35.15
2019-05-29T22:46:42.418Z,34.97
2019-05-29T22:48:59.834Z,35.81
2019-05-29T22:51:17.107Z,35.56
2019-05-29T22:53:34.097Z,36.25
2019-05-29T22:55:51.625Z,36.18
2019-05-29T22:58:08.833Z,36.04
2019-05-29T23:00:25.448Z,36.04
2019-05-29T23:02:42.252Z,36.20
2019-05-29T23:05:00.556Z,35.89
2019-05-29T23:07:17.618Z,35.89
2019-05-29T23:09:34.647Z,36.19
2019-05-29T23:11:54.164Z,35.10
2019-05-29T23:14:11.260Z,35.18
2019-05-29T23:16:29.480Z,35.50
2019-05-29T23:18:46.372Z,35.48
2019-05-29T23:21:03.437Z,35.20
2019-05-29T23:23:20.427Z,35.22
2019-05-29T23:25:37.496Z,34.98
2019-05-29T23:27:54.855Z,35.22
2019-05-29T23:30:12.242Z,35.36
2019-05-29T23:32:29.010Z,35.12
2019-05-29T23:34:45.830Z,35.29
2019-05-29T23:37:03.374Z,35.91
2019-05-29T23:39:20.259Z,36.24
2019-05-29T23:41:37.271Z,35.58
2019-05-29T23:43:55.445Z,35.48
2019-05-29T23:46:12.442Z,35.59
2019-05-29T23:48:29.342Z,35.58
2019-05-29T23:50:46.677Z,35.49
2019-05-29T23:53:04.036Z,35.34
2019-05-29T23:55:22.648Z,36.01
2019-05-29T23:57:39.415Z,35.90
